Time;durP1;ratioP1;P1;durP2;ratioP2;P2;SDS_P1;SDS_P2;PMS_P1;PMS_P2;Temp;Humidity;BMP_temperature;BMP_pressure;BME280_temperature;BME280_humidity;BME280_pressure;Samples;Min_cycle;Max_cycle;Signal;HPM_P1;HPM_P2
2023/10/27 00:00:53;;;;;;;;;;;;;;;11.79;100.00;95774.56;5071135;28;19928;-83
2023/10/27 00:03:19;;;;;;;;;;;;;;;11.84;100.00;95777.06;5075917;28;20768;-83
2023/10/27 00:05:46;;;;;;;;;;;;;;;11.86;100.00;95777.53;5071516;28;19931;-83
2023/10/27 00:08:13;;;;;;;;;;;;;;;11.85;100.00;95769.84;5089628;28;20007;-83
2023/10/27 00:10:41;;;;;;;;;;;;;;;11.81;100.00;95763.56;5088953;28;19955;-82
2023/10/27 00:13:07;;;;;;;;;;;;;;;11.81;100.00;95764.34;5074519;28;20038;-83
2023/10/27 00:15:33;;;;;;;;;;;;;;;11.80;100.00;95757.41;5072128;28;20018;-83
2023/10/27 00:18:00;;;;;;;;;;;;;;;11.78;100.00;95756.19;5076761;28;19928;-83
2023/10/27 00:20:26;;;;;;;;;;;;;;;11.81;100.00;95756.31;5073427;28;20009;-82
2023/10/27 00:22:53;;;;;;;;;;;;;;;11.76;100.00;95753.81;5069761;28;20355;-82
2023/10/27 00:25:19;;;;;;;;;;;;;;;11.82;100.00;95749.84;5072116;28;19939;-82
2023/10/27 00:27:47;;;;;;;;;;;;;;;11.83;100.00;95743.41;5068616;28;19925;-82
2023/10/27 00:30:13;;;;;;;;;;;;;;;11.88;100.00;95748.56;5073356;28;20024;-83
2023/10/27 00:32:40;;;;;;;;;;;;;;;11.87;100.00;95741.66;5055988;28;20635;-82
2023/10/27 00:35:06;;;;;;;;;;;;;;;11.91;100.00;95742.56;5075941;28;20012;-83
2023/10/27 00:37:33;;;;;;;;;;;;;;;11.99;100.00;95742.84;5078904;28;19924;-82
2023/10/27 00:40:00;;;;;;;;;;;;;;;12.03;100.00;95738.41;5061930;28;19964;-82
2023/10/27 00:42:26;;;;;;;;;;;;;;;12.04;100.00;95745.34;5073889;28;19924;-82
2023/10/27 00:44:54;;;;;;;;;;;;;;;12.06;100.00;95737.78;5068094;28;19963;-83
2023/10/27 00:47:20;;;;;;;;;;;;;;;12.06;100.00;95741.25;5058504;28;19963;-83
2023/10/27 00:49:47;;;;;;;;;;;;;;;12.11;100.00;95740.25;5070680;28;19985;-82
2023/10/27 00:52:14;;;;;;;;;;;;;;;12.17;100.00;95742.41;5072279;28;20039;-81
2023/10/27 00:54:41;;;;;;;;;;;;;;;12.22;100.00;95741.44;5069119;28;19963;-82
2023/10/27 00:57:08;;;;;;;;;;;;;;;12.26;100.00;95728.97;5083258;28;20562;-82
2023/10/27 00:59:36;;;;;;;;;;;;;;;12.30;100.00;95737.91;5058754;28;20017;-82
2023/10/27 01:02:04;;;;;;;;;;;;;;;12.25;100.00;95730.09;5087719;28;19924;-81
2023/10/27 01:04:30;;;;;;;;;;;;;;;12.26;100.00;95727.06;5088429;28;19955;-82
2023/10/27 01:06:57;;;;;;;;;;;;;;;12.26;100.00;95735.09;5090358;28;19946;-82
2023/10/27 01:09:23;;;;;;;;;;;;;;;12.20;100.00;95725.69;5085426;28;19925;-82
2023/10/27 01:11:49;;;;;;;;;;;;;;;12.20;100.00;95730.25;5088761;28;20405;-82
2023/10/27 01:14:16;;;;;;;;;;;;;;;12.28;100.00;95730.22;5088311;28;19964;-83
2023/10/27 01:16:42;;;;;;;;;;;;;;;12.38;100.00;95734.38;5069812;28;19951;-82
2023/10/27 01:19:10;;;;;;;;;;;;;;;12.42;100.00;95724.59;5087325;28;19924;-82
2023/10/27 01:21:36;;;;;;;;;;;;;;;12.45;100.00;95729.28;5085147;28;19924;-81
2023/10/27 01:24:04;;;;;;;;;;;;;;;12.51;100.00;95719.16;5077775;28;19930;-82
2023/10/27 01:26:31;;;;;;;;;;;;;;;12.57;100.00;95726.66;5079681;28;19936;-82
2023/10/27 01:28:57;;;;;;;;;;;;;;;12.61;100.00;95716.09;5077455;28;20023;-82
2023/10/27 01:31:24;;;;;;;;;;;;;;;12.65;100.00;95717.78;5082519;28;20458;-82
2023/10/27 01:33:50;;;;;;;;;;;;;;;12.69;100.00;95726.72;5083716;28;19932;-83
2023/10/27 01:36:16;;;;;;;;;;;;;;;12.67;100.00;95720.91;5081322;28;19928;-82
2023/10/27 01:38:43;;;;;;;;;;;;;;;12.62;100.00;95712.31;5084822;28;19932;-82
2023/10/27 01:41:10;;;;;;;;;;;;;;;12.64;100.00;95721.56;5079584;28;20030;-81
2023/10/27 01:43:37;;;;;;;;;;;;;;;12.66;100.00;95719.34;5084483;28;19924;-82
2023/10/27 01:46:03;;;;;;;;;;;;;;;12.70;100.00;95725.63;5082295;28;19939;-82
2023/10/27 01:48:30;;;;;;;;;;;;;;;12.73;100.00;95719.59;5082537;28;20036;-82
2023/10/27 01:50:56;;;;;;;;;;;;;;;12.75;100.00;95711.25;5085729;28;19971;-82
2023/10/27 01:53:22;;;;;;;;;;;;;;;12.72;100.00;95703.88;5088044;28;20066;-82
2023/10/27 01:55:49;;;;;;;;;;;;;;;12.71;100.00;95715.69;5070019;28;19979;-82
2023/10/27 01:58:16;;;;;;;;;;;;;;;12.72;100.00;95717.28;5069932;28;19924;-82
2023/10/27 02:00:43;;;;;;;;;;;;;;;12.72;100.00;95709.25;5088272;28;19934;-84
2023/10/27 02:03:09;;;;;;;;;;;;;;;12.75;100.00;95712.00;5077853;28;20276;-81
2023/10/27 02:05:35;;;;;;;;;;;;;;;12.74;100.00;95709.69;5099667;28;19931;-82
2023/10/27 02:08:02;;;;;;;;;;;;;;;12.72;100.00;95712.66;5088326;28;20044;-82
2023/10/27 02:10:28;;;;;;;;;;;;;;;12.76;100.00;95713.59;5084502;28;19924;-82
2023/10/27 02:12:55;;;;;;;;;;;;;;;12.74;100.00;95713.16;5077940;28;20521;-82
2023/10/27 02:15:22;;;;;;;;;;;;;;;12.77;100.00;95706.34;5086879;28;19967;-82
2023/10/27 02:17:49;;;;;;;;;;;;;;;12.78;100.00;95708.66;5079852;28;20044;-81
2023/10/27 02:20:15;;;;;;;;;;;;;;;12.80;100.00;95700.31;5086478;28;20266;-83
2023/10/27 02:22:41;;;;;;;;;;;;;;;12.82;100.00;95695.41;5087667;28;19975;-83
2023/10/27 02:25:08;;;;;;;;;;;;;;;12.82;100.00;95698.88;5070123;28;19924;-83
2023/10/27 02:27:38;;;;;;;;;;;;;;;12.83;100.00;95697.78;5090636;28;20287;-82
2023/10/27 02:30:05;;;;;;;;;;;;;;;12.82;100.00;95701.56;5069230;28;20555;-81
2023/10/27 02:32:33;;;;;;;;;;;;;;;12.80;100.00;95697.66;5065412;28;20019;-82
2023/10/27 02:34:59;;;;;;;;;;;;;;;12.78;100.00;95699.88;5087431;28;20010;-82
2023/10/27 02:37:25;;;;;;;;;;;;;;;12.76;100.00;95689.50;5081946;28;20015;-82
2023/10/27 02:39:52;;;;;;;;;;;;;;;12.75;100.00;95695.19;5066273;28;19929;-82
2023/10/27 02:42:18;;;;;;;;;;;;;;;12.77;100.00;95695.63;5084015;28;19924;-83
2023/10/27 02:44:44;;;;;;;;;;;;;;;12.79;100.00;95696.06;5077278;28;20001;-83
2023/10/27 02:47:11;;;;;;;;;;;;;;;12.79;100.00;95696.84;5062721;28;20019;-83
2023/10/27 02:49:39;;;;;;;;;;;;;;;12.82;100.00;95698.09;5083656;28;19935;-83
2023/10/27 02:52:05;;;;;;;;;;;;;;;12.80;100.00;95698.44;5086188;28;19928;-82
2023/10/27 02:54:32;;;;;;;;;;;;;;;12.83;100.00;95708.50;5082642;28;20016;-82
2023/10/27 02:56:58;;;;;;;;;;;;;;;12.82;100.00;95716.84;5085103;28;19935;-82
2023/10/27 02:59:25;;;;;;;;;;;;;;;12.81;100.00;95713.38;5087460;28;20026;-82
2023/10/27 03:01:52;;;;;;;;;;;;;;;12.83;100.00;95710.38;5083831;28;20505;-83
2023/10/27 03:04:19;;;;;;;;;;;;;;;12.83;100.00;95713.06;5086661;28;19928;-83
2023/10/27 03:06:46;;;;;;;;;;;;;;;12.81;100.00;95716.03;5087336;28;19924;-82
2023/10/27 03:09:13;;;;;;;;;;;;;;;12.81;100.00;95716.03;5069091;28;20488;-82
2023/10/27 03:11:39;;;;;;;;;;;;;;;12.83;100.00;95723.78;5082183;28;20508;-83
2023/10/27 03:14:06;;;;;;;;;;;;;;;12.78;100.00;95714.03;5066641;28;20378;-82
2023/10/27 03:16:34;;;;;;;;;;;;;;;12.74;100.00;95723.06;5083433;28;19957;-81
2023/10/27 03:19:01;;;;;;;;;;;;;;;12.72;100.00;95718.03;5085719;28;20029;-82
2023/10/27 03:21:27;;;;;;;;;;;;;;;12.75;100.00;95714.69;5064224;28;20439;-82
2023/10/27 03:23:55;;;;;;;;;;;;;;;12.73;100.00;95714.25;5084610;28;19931;-82
2023/10/27 03:26:21;;;;;;;;;;;;;;;12.74;100.00;95709.69;5063321;28;20011;-82
2023/10/27 03:28:48;;;;;;;;;;;;;;;12.71;100.00;95707.66;5083536;28;20348;-82
2023/10/27 03:31:14;;;;;;;;;;;;;;;12.67;100.00;95699.50;5086506;28;19924;-82
2023/10/27 03:33:41;;;;;;;;;;;;;;;12.70;100.00;95701.50;5082594;28;20697;-82
2023/10/27 03:36:07;;;;;;;;;;;;;;;12.71;100.00;95703.09;5085108;28;20446;-83
2023/10/27 03:38:34;;;;;;;;;;;;;;;12.72;100.00;95706.56;5081565;28;19928;-83
2023/10/27 03:41:01;;;;;;;;;;;;;;;12.74;100.00;95710.47;5083778;28;19924;-84
2023/10/27 03:43:28;;;;;;;;;;;;;;;12.75;100.00;95712.00;5079451;28;19931;-82
2023/10/27 03:45:54;;;;;;;;;;;;;;;12.76;100.00;95705.56;5082351;28;19928;-82
2023/10/27 03:48:21;;;;;;;;;;;;;;;12.74;100.00;95710.47;5068642;28;19993;-82
2023/10/27 03:50:47;;;;;;;;;;;;;;;12.75;100.00;95708.56;5064036;28;20014;-81
2023/10/27 03:53:13;;;;;;;;;;;;;;;12.77;100.00;95714.38;5067472;28;19924;-82
2023/10/27 03:55:40;;;;;;;;;;;;;;;12.73;100.00;95719.59;5088142;28;20019;-82
2023/10/27 03:58:14;;;;;;;;;;;;;;;12.74;100.00;95713.16;5083925;28;20083;-82
2023/10/27 04:00:40;;;;;;;;;;;;;;;12.66;100.00;95711.31;5068386;28;20043;-82
2023/10/27 04:03:07;;;;;;;;;;;;;;;12.70;100.00;95700.72;5082139;28;20457;-82
2023/10/27 04:05:33;;;;;;;;;;;;;;;12.73;100.00;95698.19;5080333;28;20383;-83
2023/10/27 04:07:59;;;;;;;;;;;;;;;12.74;100.00;95694.41;5092506;28;19928;-82
2023/10/27 04:10:26;;;;;;;;;;;;;;;12.67;100.00;95688.78;5089484;28;19924;-82
2023/10/27 04:12:53;;;;;;;;;;;;;;;12.64;100.00;95694.81;5066501;28;20260;-83
2023/10/27 04:15:20;;;;;;;;;;;;;;;12.60;100.00;95717.97;5081136;28;20032;-83
2023/10/27 04:17:47;;;;;;;;;;;;;;;12.58;100.00;95717.53;5088155;28;19924;-82
2023/10/27 04:20:13;;;;;;;;;;;;;;;12.58;100.00;95714.88;5088287;28;20308;-82
2023/10/27 04:22:39;;;;;;;;;;;;;;;12.65;100.00;95722.38;5087052;28;19975;-82
2023/10/27 04:25:06;;;;;;;;;;;;;;;12.64;100.00;95726.94;5066497;28;19930;-85
2023/10/27 04:27:32;;;;;;;;;;;;;;;12.67;100.00;95730.84;5080533;28;19928;-82
2023/10/27 04:29:59;;;;;;;;;;;;;;;12.60;100.00;95730.59;5085058;28;20643;-82
2023/10/27 04:32:26;;;;;;;;;;;;;;;12.61;100.00;95719.56;5082599;28;20034;-82
2023/10/27 04:34:53;;;;;;;;;;;;;;;12.67;100.00;95725.50;5086738;28;20655;-81
2023/10/27 04:37:19;;;;;;;;;;;;;;;12.66;100.00;95729.25;5080796;28;20504;-83
2023/10/27 04:39:46;;;;;;;;;;;;;;;12.67;100.00;95723.59;5083215;28;19931;-83
2023/10/27 04:42:12;;;;;;;;;;;;;;;12.61;100.00;95716.88;5077516;28;19935;-83
2023/10/27 04:44:38;;;;;;;;;;;;;;;12.61;100.00;95711.53;5082107;28;19984;-83
2023/10/27 04:47:05;;;;;;;;;;;;;;;12.60;100.00;95720.66;5084799;28;19934;-83
2023/10/27 04:49:32;;;;;;;;;;;;;;;12.61;100.00;95716.88;5081094;28;19955;-83
2023/10/27 04:51:59;;;;;;;;;;;;;;;12.63;100.00;95717.31;5077211;28;19924;-84
2023/10/27 04:54:25;;;;;;;;;;;;;;;12.63;100.00;95714.66;5080538;28;20388;-83
2023/10/27 04:56:52;;;;;;;;;;;;;;;12.62;100.00;95707.75;5080356;28;20454;-81
2023/10/27 04:59:18;;;;;;;;;;;;;;;12.65;100.00;95707.09;5086758;28;19928;-83
2023/10/27 05:01:44;;;;;;;;;;;;;;;12.67;100.00;95704.84;5088733;28;19967;-82
2023/10/27 05:04:13;;;;;;;;;;;;;;;12.65;100.00;95708.97;5085959;28;20003;-82
2023/10/27 05:06:41;;;;;;;;;;;;;;;12.58;100.00;95701.47;5072690;28;20470;-83
2023/10/27 05:09:07;;;;;;;;;;;;;;;12.63;100.00;95703.16;5065110;28;19981;-82
2023/10/27 05:11:35;;;;;;;;;;;;;;;12.64;100.00;95700.16;5061564;28;20415;-82
2023/10/27 05:14:01;;;;;;;;;;;;;;;12.64;100.00;95697.47;5082535;28;19997;-81
2023/10/27 05:16:27;;;;;;;;;;;;;;;12.60;100.00;95704.59;5080858;28;20768;-82
2023/10/27 05:18:54;;;;;;;;;;;;;;;12.57;100.00;95713.28;5083229;28;19928;-82
2023/10/27 05:21:20;;;;;;;;;;;;;;;12.53;100.00;95733.03;5081881;28;19928;-82
2023/10/27 05:23:50;;;;;;;;;;;;;;;12.55;100.00;95739.63;5085930;28;19928;-82
2023/10/27 05:26:17;;;;;;;;;;;;;;;12.52;100.00;95737.59;5079141;28;20039;-82
2023/10/27 05:28:43;;;;;;;;;;;;;;;12.42;100.00;95719.25;5081911;28;19955;-82
2023/10/27 05:31:09;;;;;;;;;;;;;;;12.45;100.00;95723.94;5084357;28;19927;-82
2023/10/27 05:33:36;;;;;;;;;;;;;;;12.49;100.00;95724.06;5080773;28;20029;-82
2023/10/27 05:36:03;;;;;;;;;;;;;;;12.53;100.00;95719.63;5084772;28;20014;-83
2023/10/27 05:38:29;;;;;;;;;;;;;;;12.54;100.00;95721.97;5080030;28;19928;-81
2023/10/27 05:40:57;;;;;;;;;;;;;;;12.53;100.00;95715.06;5072723;28;19924;-82
2023/10/27 05:43:23;;;;;;;;;;;;;;;12.54;100.00;95730.00;5078920;28;19927;-83
2023/10/27 05:45:50;;;;;;;;;;;;;;;12.60;100.00;95731.38;5071231;28;20426;-83
2023/10/27 05:48:16;;;;;;;;;;;;;;;12.61;100.00;95734.84;5086629;28;19977;-83
2023/10/27 05:50:43;;;;;;;;;;;;;;;12.60;100.00;95726.00;5083921;28;20314;-83
2023/10/27 05:53:09;;;;;;;;;;;;;;;12.61;100.00;95714.19;5085764;28;20015;-82
2023/10/27 05:55:35;;;;;;;;;;;;;;;12.62;100.00;95717.66;5079888;28;19935;-82
2023/10/27 05:58:05;;;;;;;;;;;;;;;12.57;100.00;95715.97;5089198;28;19942;-83
2023/10/27 06:00:32;;;;;;;;;;;;;;;12.60;100.00;95719.88;5085354;28;20407;-83
2023/10/27 06:02:58;;;;;;;;;;;;;;;12.64;100.00;95726.94;5075149;28;19960;-82
2023/10/27 06:05:24;;;;;;;;;;;;;;;12.59;100.00;95718.31;5088875;28;19928;-82
2023/10/27 06:07:51;;;;;;;;;;;;;;;12.61;100.00;95711.53;5088086;28;19928;-83
2023/10/27 06:10:18;;;;;;;;;;;;;;;12.55;100.00;95718.19;5087943;28;20322;-83
2023/10/27 06:12:44;;;;;;;;;;;;;;;12.56;100.00;95727.81;5087504;28;19924;-83
2023/10/27 06:15:12;;;;;;;;;;;;;;;12.49;100.00;95726.75;5091906;28;19924;-82
2023/10/27 06:17:38;;;;;;;;;;;;;;;12.46;100.00;95736.22;5079242;28;19924;-82
2023/10/27 06:20:05;;;;;;;;;;;;;;;12.47;100.00;95743.16;5092130;28;19924;-83
2023/10/27 06:22:31;;;;;;;;;;;;;;;12.48;100.00;95744.69;5073863;28;20010;-82
2023/10/27 06:24:58;;;;;;;;;;;;;;;12.48;100.00;95754.63;5092147;28;19958;-83
2023/10/27 06:27:24;;;;;;;;;;;;;;;12.56;100.00;95764.50;5073819;28;19971;-84
2023/10/27 06:29:50;;;;;;;;;;;;;;;12.55;100.00;95770.94;5087595;28;20019;-82
2023/10/27 06:32:19;;;;;;;;;;;;;;;12.51;100.00;95772.69;5086549;28;19925;-82
2023/10/27 06:34:46;;;;;;;;;;;;;;;12.56;100.00;95777.88;5083378;28;20540;-83
2023/10/27 06:37:12;;;;;;;;;;;;;;;12.52;100.00;95791.13;5062727;28;19960;-83
2023/10/27 06:39:38;;;;;;;;;;;;;;;12.54;100.00;95796.94;5084448;28;19924;-82
2023/10/27 06:42:06;;;;;;;;;;;;;;;12.53;100.00;95784.69;5067411;28;20001;-82
2023/10/27 06:44:32;;;;;;;;;;;;;;;12.49;100.00;95782.97;5081822;28;19931;-82
2023/10/27 06:46:59;;;;;;;;;;;;;;;12.50;100.00;95788.00;5087210;28;20413;-83
2023/10/27 06:49:26;;;;;;;;;;;;;;;12.54;100.00;95788.91;5074309;28;19932;-84
2023/10/27 06:51:53;;;;;;;;;;;;;;;12.53;100.00;95790.03;5086626;28;19928;-82
2023/10/27 06:54:19;;;;;;;;;;;;;;;12.51;100.00;95807.50;5083829;28;19929;-83
2023/10/27 06:56:45;;;;;;;;;;;;;;;12.47;100.00;95809.28;5085339;28;19928;-82
2023/10/27 06:59:12;;;;;;;;;;;;;;;12.43;100.00;95811.81;5084129;28;20039;-83
2023/10/27 07:01:38;;;;;;;;;;;;;;;12.41;100.00;95820.16;5082209;28;19946;-82
2023/10/27 07:04:05;;;;;;;;;;;;;;;12.38;100.00;95820.03;5086837;28;20700;-82
2023/10/27 07:06:32;;;;;;;;;;;;;;;12.40;100.00;95818.63;5087700;28;19971;-82
2023/10/27 07:08:59;;;;;;;;;;;;;;;12.36;100.00;95822.25;5085785;28;20008;-82
2023/10/27 07:11:27;;;;;;;;;;;;;;;12.35;100.00;95820.69;5072242;28;20686;-83
2023/10/27 07:13:54;;;;;;;;;;;;;;;12.27;100.00;95826.88;5066892;28;19967;-82
2023/10/27 07:16:20;;;;;;;;;;;;;;;12.21;100.00;95814.78;5083616;28;20003;-83
2023/10/27 07:18:46;;;;;;;;;;;;;;;12.25;100.00;95811.16;5084484;28;20023;-83
2023/10/27 07:21:13;;;;;;;;;;;;;;;12.25;100.00;95805.81;5082574;28;19939;-83
2023/10/27 07:23:40;;;;;;;;;;;;;;;12.29;100.00;95811.28;5085259;28;20022;-83
2023/10/27 07:26:14;;;;;;;;;;;;;;;12.25;100.00;95818.41;5081919;28;19928;-83
2023/10/27 07:28:40;;;;;;;;;;;;;;;12.29;100.00;95806.72;5075527;28;19939;-82
2023/10/27 07:31:07;;;;;;;;;;;;;;;12.26;100.00;95812.72;5086121;28;19928;-83
2023/10/27 07:33:34;;;;;;;;;;;;;;;12.26;100.00;95810.03;5082966;28;19924;-83
2023/10/27 07:36:02;;;;;;;;;;;;;;;12.31;100.00;95807.19;5077472;28;19977;-83
2023/10/27 07:38:28;;;;;;;;;;;;;;;12.38;100.00;95793.25;5082274;28;19928;-83
2023/10/27 07:40:57;;;;;;;;;;;;;;;12.38;100.00;95796.72;5086431;28;20030;-88
2023/10/27 07:43:23;;;;;;;;;;;;;;;12.26;100.00;95804.69;5089618;28;19970;-82
2023/10/27 07:45:50;;;;;;;;;;;;;;;12.31;100.00;95806.41;5086410;28;19931;-82
2023/10/27 07:48:16;;;;;;;;;;;;;;;12.32;100.00;95799.91;5089359;28;19974;-80
2023/10/27 07:50:43;;;;;;;;;;;;;;;12.29;100.00;95813.94;5085289;28;20031;-81
2023/10/27 07:53:09;;;;;;;;;;;;;;;12.31;100.00;95817.09;5087946;28;20009;-81
2023/10/27 07:55:36;;;;;;;;;;;;;;;12.27;100.00;95802.78;5073968;28;19924;-83
2023/10/27 07:58:04;;;;;;;;;;;;;;;12.33;100.00;95804.97;5083239;28;19935;-80
2023/10/27 08:00:31;;;;;;;;;;;;;;;12.28;100.00;95815.88;5080875;28;20407;-79
2023/10/27 08:02:57;;;;;;;;;;;;;;;12.28;100.00;95807.03;5082551;28;20559;-83
2023/10/27 08:05:24;;;;;;;;;;;;;;;12.18;100.00;95805.53;5086637;28;19994;-80
2023/10/27 08:07:50;;;;;;;;;;;;;;;12.21;100.00;95802.19;5086395;28;19924;-85
2023/10/27 08:10:19;;;;;;;;;;;;;;;12.22;100.00;95811.00;5069398;28;19924;-84
2023/10/27 08:12:45;;;;;;;;;;;;;;;12.33;100.00;95814.88;5088036;28;19935;-81
2023/10/27 08:15:13;;;;;;;;;;;;;;;12.32;100.00;95824.00;5087027;28;19924;-82
2023/10/27 08:17:39;;;;;;;;;;;;;;;12.25;100.00;95821.06;5076627;28;19960;-83
2023/10/27 08:20:06;;;;;;;;;;;;;;;12.28;100.00;95828.44;5090487;28;19928;-85
2023/10/27 08:22:34;;;;;;;;;;;;;;;12.27;100.00;95824.19;5091585;28;19924;-82
2023/10/27 08:25:01;;;;;;;;;;;;;;;12.26;100.00;95819.94;5091158;28;19932;-84
2023/10/27 08:27:27;;;;;;;;;;;;;;;12.27;100.00;95834.91;5081176;28;20005;-84
2023/10/27 08:29:54;;;;;;;;;;;;;;;12.28;100.00;95839.16;5095701;28;19931;-84
2023/10/27 08:32:22;;;;;;;;;;;;;;;12.30;100.00;95837.72;5092985;28;20270;-82
2023/10/27 08:34:49;;;;;;;;;;;;;;;12.23;100.00;95842.78;5065341;28;19990;-83
2023/10/27 08:37:16;;;;;;;;;;;;;;;12.16;100.00;95844.41;5087942;28;20359;-82
2023/10/27 08:39:42;;;;;;;;;;;;;;;12.25;100.00;95847.84;5082861;28;20368;-84
2023/10/27 08:42:10;;;;;;;;;;;;;;;12.29;100.00;95843.38;5074696;28;19955;-84
2023/10/27 08:44:37;;;;;;;;;;;;;;;12.37;100.00;95845.25;5075721;28;19931;-85
2023/10/27 08:47:04;;;;;;;;;;;;;;;12.36;100.00;95844.44;5085709;28;20489;-83
2023/10/27 08:49:32;;;;;;;;;;;;;;;12.37;100.00;95846.03;5090624;28;19956;-85
2023/10/27 08:51:58;;;;;;;;;;;;;;;12.33;100.00;95838.97;5086239;28;19934;-84
2023/10/27 08:54:25;;;;;;;;;;;;;;;12.37;100.00;95839.88;5066233;28;19924;-83
2023/10/27 08:56:51;;;;;;;;;;;;;;;12.52;100.00;95844.66;5067416;28;20594;-85
2023/10/27 08:59:17;;;;;;;;;;;;;;;12.44;100.00;95850.84;5082192;28;20446;-82
2023/10/27 09:01:44;;;;;;;;;;;;;;;12.49;100.00;95842.66;5071834;28;20272;-85
2023/10/27 09:04:11;;;;;;;;;;;;;;;12.48;100.00;95851.78;5077201;28;19978;-84
2023/10/27 09:06:40;;;;;;;;;;;;;;;12.46;100.00;95848.66;5088367;28;20384;-84
2023/10/27 09:09:09;;;;;;;;;;;;;;;12.48;100.00;95848.31;5093714;28;19928;-86
2023/10/27 09:11:40;;;;;;;;;;;;;;;12.49;100.00;95864.06;5087477;28;20489;-87
2023/10/27 09:14:16;;;;;;;;;;;;;;;12.48;100.00;95867.84;5098884;28;20540;-88
2023/10/27 09:16:43;;;;;;;;;;;;;;;12.40;100.00;95866.00;5093283;28;19985;-85
2023/10/27 09:19:18;;;;;;;;;;;;;;;12.46;100.00;95864.72;5084803;28;20604;-90
2023/10/27 09:21:45;;;;;;;;;;;;;;;12.63;100.00;95875.31;5076689;28;19932;-85
2023/10/27 09:24:12;;;;;;;;;;;;;;;12.67;100.00;95878.91;5071378;28;19931;-86
2023/10/27 09:26:46;;;;;;;;;;;;;;;12.63;100.00;95883.34;5085224;28;20395;-85
2023/10/27 09:29:13;;;;;;;;;;;;;;;12.56;100.00;95885.75;5070950;28;19928;-85
2023/10/27 09:31:39;;;;;;;;;;;;;;;12.59;100.00;95890.47;5083125;28;19924;-84
2023/10/27 09:34:19;;;;;;;;;;;;;;;12.61;100.00;95892.81;5083952;28;19928;-83
2023/10/27 09:36:48;;;;;;;;;;;;;;;12.50;100.00;95887.06;5076690;28;19940;-82
2023/10/27 09:39:18;;;;;;;;;;;;;;;12.45;100.00;95889.91;5072403;28;20504;-83
2023/10/27 09:41:54;;;;;;;;;;;;;;;12.48;100.00;95899.97;5064941;28;19925;-84
2023/10/27 09:44:20;;;;;;;;;;;;;;;12.51;100.00;95906.56;5059898;28;19967;-85
2023/10/27 09:46:51;;;;;;;;;;;;;;;12.53;100.00;95893.66;5069199;28;19970;-84
2023/10/27 09:49:24;;;;;;;;;;;;;;;12.61;100.00;95906.19;5072611;28;20396;-84
2023/10/27 09:51:53;;;;;;;;;;;;;;;12.56;100.00;95907.19;5076876;28;19928;-85
2023/10/27 09:54:19;;;;;;;;;;;;;;;12.58;100.00;95904.94;5066548;28;20578;-86
2023/10/27 09:56:48;;;;;;;;;;;;;;;12.67;100.00;95911.03;5084628;28;20488;-84
2023/10/27 09:59:15;;;;;;;;;;;;;;;12.64;100.00;95906.34;5084712;28;20415;-85
2023/10/27 10:01:41;;;;;;;;;;;;;;;12.61;100.00;95908.88;5081178;28;20038;-85
2023/10/27 10:04:07;;;;;;;;;;;;;;;12.68;100.00;95909.94;5074365;28;19979;-84
2023/10/27 10:06:37;;;;;;;;;;;;;;;12.63;100.00;95899.41;5067720;28;20008;-84
2023/10/27 10:09:10;;;;;;;;;;;;;;;12.52;100.00;95911.59;5068734;28;20016;-83
2023/10/27 10:11:37;;;;;;;;;;;;;;;12.69;100.00;95910.72;5088508;28;19935;-83
2023/10/27 10:14:04;;;;;;;;;;;;;;;12.80;100.00;95907.34;5069934;28;19936;-85
2023/10/27 10:16:31;;;;;;;;;;;;;;;12.81;100.00;95905.44;5081017;28;19954;-84
2023/10/27 10:18:58;;;;;;;;;;;;;;;12.80;100.00;95906.56;5071287;28;19928;-84
2023/10/27 10:21:31;;;;;;;;;;;;;;;12.81;100.00;95903.53;5083885;28;20453;-85
2023/10/27 10:24:17;;;;;;;;;;;;;;;12.95;100.00;95909.44;5087838;28;19924;-86
2023/10/27 10:27:02;;;;;;;;;;;;;;;12.83;100.00;95908.56;5078142;28;19981;-85
2023/10/27 10:29:32;;;;;;;;;;;;;;;12.86;100.00;95913.28;5049347;28;19986;-84
2023/10/27 10:32:12;;;;;;;;;;;;;;;13.00;100.00;95906.56;5079846;28;19974;-86
2023/10/27 10:34:39;;;;;;;;;;;;;;;12.99;100.00;95910.38;5068755;28;20383;-85
2023/10/27 10:37:24;;;;;;;;;;;;;;;13.09;100.00;95908.44;5064073;28;20021;-83
2023/10/27 10:40:09;;;;;;;;;;;;;;;13.11;100.00;95903.53;5073948;28;20020;-86
2023/10/27 10:42:51;;;;;;;;;;;;;;;13.20;100.00;95901.56;5070208;28;19935;-85
2023/10/27 10:45:19;;;;;;;;;;;;;;;13.04;100.00;95903.22;5069353;28;20014;-84
2023/10/27 10:47:45;;;;;;;;;;;;;;;13.07;100.00;95905.25;5061179;28;19925;-86
2023/10/27 10:50:11;;;;;;;;;;;;;;;12.98;100.00;95900.75;5089721;28;19924;-85
2023/10/27 10:52:38;;;;;;;;;;;;;;;12.89;100.00;95902.72;5079902;28;19959;-85
2023/10/27 10:55:04;;;;;;;;;;;;;;;12.96;100.00;95891.47;5090267;28;19977;-85
2023/10/27 10:57:31;;;;;;;;;;;;;;;13.09;100.00;95892.34;5092677;28;19978;-85
2023/10/27 11:02:29;;;;;;;;;;;;;;;13.16;100.00;95897.94;5069026;22;19975;-84
2023/10/27 11:04:57;;;;;;;;;;;;;;;13.09;100.00;95893.13;5052689;28;19956;-84
2023/10/27 11:07:23;;;;;;;;;;;;;;;13.12;100.00;95894.38;5061388;28;19924;-85
2023/10/27 11:09:50;;;;;;;;;;;;;;;13.08;100.00;95890.75;5058261;28;20548;-84
2023/10/27 11:12:26;;;;;;;;;;;;;;;13.12;100.00;95897.81;5033737;28;20042;-84
2023/10/27 11:14:53;;;;;;;;;;;;;;;13.18;100.00;95901.09;5080251;28;19924;-84
2023/10/27 11:17:19;;;;;;;;;;;;;;;13.23;100.00;95899.00;5062360;28;20383;-84
2023/10/27 11:19:56;;;;;;;;;;;;;;;13.16;100.00;95901.41;5069958;28;19924;-86
2023/10/27 11:22:22;;;;;;;;;;;;;;;13.23;100.00;95900.91;5062924;28;19967;-85
2023/10/27 11:24:48;;;;;;;;;;;;;;;13.17;100.00;95894.97;5057688;28;19967;-84
2023/10/27 11:27:22;;;;;;;;;;;;;;;13.27;100.00;95893.78;5069142;28;19931;-84
2023/10/27 11:29:56;;;;;;;;;;;;;;;13.32;100.00;95888.22;5056550;28;19928;-84
2023/10/27 11:32:23;;;;;;;;;;;;;;;13.40;100.00;95882.75;5070851;28;19925;-84
2023/10/27 11:34:56;;;;;;;;;;;;;;;13.43;100.00;95887.47;5065171;28;19929;-84
2023/10/27 11:37:23;;;;;;;;;;;;;;;13.36;100.00;95886.44;5059219;28;19949;-84
2023/10/27 11:39:50;;;;;;;;;;;;;;;13.38;100.00;95892.25;5035867;28;19932;-84
2023/10/27 11:42:16;;;;;;;;;;;;;;;13.43;100.00;95900.09;5051034;28;19931;-84
2023/10/27 11:44:44;;;;;;;;;;;;;;;13.55;100.00;95894.00;5044732;28;19974;-86
2023/10/27 11:47:10;;;;;;;;;;;;;;;13.55;100.00;95910.88;5055044;28;19924;-87
2023/10/27 11:49:37;;;;;;;;;;;;;;;13.57;100.00;95916.69;5060504;28;20656;-85
2023/10/27 11:52:05;;;;;;;;;;;;;;;13.49;100.00;95906.84;5033714;28;20015;-84
2023/10/27 11:54:31;;;;;;;;;;;;;;;13.38;100.00;95900.28;5066165;28;19924;-87
2023/10/27 11:56:58;;;;;;;;;;;;;;;13.56;100.00;95899.00;5068446;28;20027;-86
2023/10/27 11:59:25;;;;;;;;;;;;;;;13.46;100.00;95900.22;5045072;28;20456;-85
2023/10/27 12:01:52;;;;;;;;;;;;;;;13.55;100.00;95905.50;5068364;28;20388;-84
2023/10/27 12:04:19;;;;;;;;;;;;;;;13.61;100.00;95898.81;5056294;28;19935;-84
2023/10/27 12:06:45;;;;;;;;;;;;;;;13.65;100.00;95896.28;5060757;28;20465;-85
2023/10/27 12:09:13;;;;;;;;;;;;;;;13.84;100.00;95902.69;5050875;28;19932;-83
2023/10/27 12:11:41;;;;;;;;;;;;;;;13.90;100.00;95905.94;5063600;28;19924;-84
2023/10/27 12:14:10;;;;;;;;;;;;;;;13.95;100.00;95908.41;5055786;28;20045;-85
2023/10/27 12:16:36;;;;;;;;;;;;;;;14.13;100.00;95907.09;5060362;28;19924;-84
2023/10/27 12:19:03;;;;;;;;;;;;;;;14.21;100.00;95918.84;5071002;28;19997;-85
2023/10/27 12:21:30;;;;;;;;;;;;;;;14.22;100.00;95913.16;5068686;28;19924;-85
2023/10/27 12:23:56;;;;;;;;;;;;;;;14.01;100.00;95907.88;5068074;28;20510;-84
2023/10/27 12:26:24;;;;;;;;;;;;;;;14.15;100.00;95906.75;5060774;28;19924;-84
2023/10/27 12:28:50;;;;;;;;;;;;;;;14.19;100.00;95913.03;5061326;28;19925;-84
2023/10/27 12:31:17;;;;;;;;;;;;;;;14.08;100.00;95905.41;5069640;28;19998;-85
2023/10/27 12:33:44;;;;;;;;;;;;;;;14.12;100.00;95918.16;5062247;28;20024;-84
2023/10/27 12:36:11;;;;;;;;;;;;;;;14.13;100.00;95920.53;5066432;28;20421;-84
2023/10/27 12:38:38;;;;;;;;;;;;;;;13.92;100.00;95912.53;5063091;28;19928;-84